Time;durP1;ratioP1;P1;durP2;ratioP2;P2;SDS_P1;SDS_P2;PMS_P1;PMS_P2;Temp;Humidity;BMP_temperature;BMP_pressure;BME280_temperature;BME280_humidity;BME280_pressure;Samples;Min_cycle;Max_cycle;Signal;HPM_P1;HPM_P2
2023/05/22 00:01:41;;;;;;;;;;;;;;;;;;5091110;28;19908;-68
2023/05/22 00:05:24;;;;;;;;;;;;;;;;;;5092099;28;19919;-68
2023/05/22 00:07:59;;;;;;;;;;;;;;;;;;5091351;27;19938;-68
2023/05/22 00:11:57;;;;;;;;;;;;;;;;;;5112304;27;19934;-68
2023/05/22 00:14:23;;;;;;;;;;;;;;;;;;5111260;28;20376;-67
2023/05/22 00:16:49;;;;;;;;;;;;;;;;;;5111962;28;19915;-68
2023/05/22 00:20:20;;;;;;;;;;;;;;;;;;5092104;28;20264;-67
2023/05/22 00:24:13;;;;;;;;;;;;;;;;;;5091809;27;19917;-67
2023/05/22 00:26:39;;;;;;;;;;;;;;;;;;5091816;28;20427;-68
2023/05/22 00:30:06;;;;;;;;;;;;;;;;;;5111335;27;19916;-67
2023/05/22 00:36:26;;;;;;;;;;;;;;;;;;5131976;27;20006;-67
2023/05/22 00:39:52;;;;;;;;;;;;;;;;;;5091656;27;19923;-67
2023/05/22 00:42:18;;;;;;;;;;;;;;;;;;5091103;28;20007;-68
2023/05/22 00:48:12;;;;;;;;;;;;;;;;;;5111767;27;19922;-67
2023/05/22 00:52:51;;;;;;;;;;;;;;;;;;5092072;27;19923;-67
2023/05/22 01:00:19;;;;;;;;;;;;;;;;;;5112198;27;19923;-67
2023/05/22 01:02:45;;;;;;;;;;;;;;;;;;5110442;28;19912;-67
2023/05/22 01:05:11;;;;;;;;;;;;;;;;;;5109990;28;20261;-67
2023/05/22 01:07:37;;;;;;;;;;;;;;;;;;5111635;28;19961;-68
2023/05/22 01:12:51;;;;;;;;;;;;;;;;;;5091668;28;19916;-67
2023/05/22 01:17:07;;;;;;;;;;;;;;;;;;5112502;27;19916;-67
2023/05/22 01:19:33;;;;;;;;;;;;;;;;;;5112001;28;19912;-67
2023/05/22 01:21:59;;;;;;;;;;;;;;;;;;5111597;28;19908;-67
2023/05/22 01:27:19;;;;;;;;;;;;;;;;;;5091489;28;19918;-67
2023/05/22 01:29:45;;;;;;;;;;;;;;;;;;5091585;28;20007;-68
2023/05/22 01:34:03;;;;;;;;;;;;;;;;;;5091674;27;19916;-67
2023/05/22 01:36:30;;;;;;;;;;;;;;;;;;5091452;28;19999;-67
2023/05/22 01:38:57;;;;;;;;;;;;;;;;;;5089561;28;19940;-67
2023/05/22 01:41:23;;;;;;;;;;;;;;;;;;5091247;28;19920;-67
2023/05/22 01:43:49;;;;;;;;;;;;;;;;;;5091182;28;19908;-67
2023/05/22 01:46:15;;;;;;;;;;;;;;;;;;5090726;28;19913;-67
2023/05/22 01:48:41;;;;;;;;;;;;;;;;;;5091354;28;20369;-67
2023/05/22 01:51:53;;;;;;;;;;;;;;;;;;5091652;27;19923;-67
2023/05/22 01:54:19;;;;;;;;;;;;;;;;;;5090947;28;20342;-67
2023/05/22 01:56:45;;;;;;;;;;;;;;;;;;5091221;28;19969;-67
2023/05/22 01:59:11;;;;;;;;;;;;;;;;;;5091302;28;19915;-67
2023/05/22 02:01:37;;;;;;;;;;;;;;;;;;5090749;28;19908;-67
2023/05/22 02:05:12;;;;;;;;;;;;;;;;;;5112554;27;19916;-67
2023/05/22 02:12:06;;;;;;;;;;;;;;;;;;5111994;27;19938;-68
2023/05/22 02:14:32;;;;;;;;;;;;;;;;;;5112019;28;19912;-67
2023/05/22 02:17:57;;;;;;;;;;;;;;;;;;5092045;27;19912;-68
2023/05/22 02:20:23;;;;;;;;;;;;;;;;;;5091404;28;19912;-67
2023/05/22 02:22:49;;;;;;;;;;;;;;;;;;5091168;28;19915;-68
2023/05/22 02:25:15;;;;;;;;;;;;;;;;;;5091163;28;19908;-68
2023/05/22 02:27:41;;;;;;;;;;;;;;;;;;5090678;28;19919;-67
2023/05/22 02:30:08;;;;;;;;;;;;;;;;;;5091371;28;19999;-67
2023/05/22 02:32:34;;;;;;;;;;;;;;;;;;5091308;28;19954;-67
2023/05/22 02:38:37;;;;;;;;;;;;;;;;;;5112616;27;20275;-68
2023/05/22 02:41:03;;;;;;;;;;;;;;;;;;5111706;28;20007;-68
2023/05/22 02:43:29;;;;;;;;;;;;;;;;;;5111242;28;19908;-68
2023/05/22 02:47:51;;;;;;;;;;;;;;;;;;5174141;27;19915;-67
2023/05/22 02:54:22;;;;;;;;;;;;;;;;;;5112278;27;19916;-67
2023/05/22 02:56:48;;;;;;;;;;;;;;;;;;5111316;28;20003;-67
2023/05/22 02:59:15;;;;;;;;;;;;;;;;;;5111676;28;19908;-67
2023/05/22 03:01:41;;;;;;;;;;;;;;;;;;5111629;28;19908;-67
2023/05/22 03:06:26;;;;;;;;;;;;;;;;;;5091880;27;19923;-67
2023/05/22 03:08:52;;;;;;;;;;;;;;;;;;5091303;28;20006;-67
2023/05/22 03:14:12;;;;;;;;;;;;;;;;;;5111775;27;19916;-68
2023/05/22 03:16:38;;;;;;;;;;;;;;;;;;5111782;28;20003;-68
2023/05/22 03:19:03;;;;;;;;;;;;;;;;;;5111278;28;20283;-68
2023/05/22 03:21:30;;;;;;;;;;;;;;;;;;5111688;28;19935;-68
2023/05/22 03:27:19;;;;;;;;;;;;;;;;;;5112306;27;19916;-68
2023/05/22 03:29:44;;;;;;;;;;;;;;;;;;5111932;28;20429;-67
2023/05/22 03:32:10;;;;;;;;;;;;;;;;;;5111473;28;19908;-67
2023/05/22 03:34:36;;;;;;;;;;;;;;;;;;5111737;28;20447;-67
2023/05/22 03:37:03;;;;;;;;;;;;;;;;;;5111476;28;19954;-67
2023/05/22 03:39:29;;;;;;;;;;;;;;;;;;5111141;28;20363;-67
2023/05/22 03:41:55;;;;;;;;;;;;;;;;;;5111485;28;19952;-67
2023/05/22 03:44:20;;;;;;;;;;;;;;;;;;5112066;28;19915;-67
2023/05/22 03:47:15;;;;;;;;;;;;;;;;;;5091805;28;19923;-67
2023/05/22 03:53:23;;;;;;;;;;;;;;;;;;5111623;27;20380;-67
2023/05/22 03:55:49;;;;;;;;;;;;;;;;;;5111730;28;19985;-67
2023/05/22 03:58:15;;;;;;;;;;;;;;;;;;5110366;28;19908;-67
2023/05/22 04:00:41;;;;;;;;;;;;;;;;;;5111467;28;19914;-67
2023/05/22 04:03:11;;;;;;;;;;;;;;;;;;5111673;28;19995;-68
2023/05/22 04:05:37;;;;;;;;;;;;;;;;;;5111529;28;19958;-67
2023/05/22 04:08:03;;;;;;;;;;;;;;;;;;5111100;28;19917;-68
2023/05/22 04:10:29;;;;;;;;;;;;;;;;;;5111512;28;19908;-68
2023/05/22 04:15:12;;;;;;;;;;;;;;;;;;5132348;27;20088;-67
2023/05/22 04:17:38;;;;;;;;;;;;;;;;;;5132255;28;20446;-67
2023/05/22 04:24:34;;;;;;;;;;;;;;;;;;5111949;27;19916;-67
2023/05/22 04:29:40;;;;;;;;;;;;;;;;;;5111852;27;19916;-67
2023/05/22 04:32:20;;;;;;;;;;;;;;;;;;5112068;27;19912;-67
2023/05/22 04:39:56;;;;;;;;;;;;;;;;;;5091770;27;20368;-67
2023/05/22 04:47:14;;;;;;;;;;;;;;;;;;5091867;27;20395;-67
2023/05/22 04:49:44;;;;;;;;;;;;;;;;;;5090916;28;20007;-67
2023/05/22 04:52:10;;;;;;;;;;;;;;;;;;5091190;28;19916;-67
2023/05/22 04:54:36;;;;;;;;;;;;;;;;;;5091468;28;19908;-67
2023/05/22 04:59:07;;;;;;;;;;;;;;;;;;5091427;27;19923;-67
2023/05/22 05:03:21;;;;;;;;;;;;;;;;;;5091204;27;19935;-67
2023/05/22 05:07:36;;;;;;;;;;;;;;;;;;5153129;27;20006;-67
2023/05/22 05:11:46;;;;;;;;;;;;;;;;;;5090968;27;19923;-68
2023/05/22 05:14:12;;;;;;;;;;;;;;;;;;5087581;28;19912;-68
2023/05/22 05:16:38;;;;;;;;;;;;;;;;;;5089499;28;20320;-67
2023/05/22 05:20:31;;;;;;;;;;;;;;;;;;5108670;27;19920;-66
2023/05/22 05:22:58;;;;;;;;;;;;;;;;;;5109560;28;19919;-66
2023/05/22 05:27:15;;;;;;;;;;;;;;;;;;5158204;27;19915;-66
2023/05/22 05:34:51;;;;;;;;;;;;;;;;;;5125835;27;19953;-66
2023/05/22 05:37:17;;;;;;;;;;;;;;;;;;5098932;28;19912;-65
2023/05/22 05:39:52;;;;;;;;;;;;;;;;;;5082807;27;2094235;-65
2023/05/22 05:42:18;;;;;;;;;;;;;;;;;;5125502;28;19911;-66
2023/05/22 05:44:44;;;;;;;;;;;;;;;;;;5127911;28;19930;-67
2023/05/22 05:47:10;;;;;;;;;;;;;;;;;;5164911;27;19959;-66
2023/05/22 05:50:42;;;;;;;;;;;;;;;;;;5083689;27;20558;-66
2023/05/22 05:57:08;;;;;;;;;;;;;;;;;;5086634;27;19920;-66
2023/05/22 06:00:34;;;;;;;;;;;;;;;;;;5086078;27;19926;-68
2023/05/22 06:03:58;;;;;;;;;;;;;;;;;;5084751;28;20300;-65
2023/05/22 06:06:25;;;;;;;;;;;;;;;;;;5085331;28;20279;-66
2023/05/22 06:11:00;;;;;;;;;;;;;;;;;;5090501;27;2108602;-63
2023/05/22 06:15:19;;;;;;;;;;;;;;;;;;5087130;27;19916;-65
2023/05/22 06:17:45;;;;;;;;;;;;;;;;;;5085777;28;19946;-65
2023/05/22 06:21:16;;;;;;;;;;;;;;;;;;5108240;27;19924;-65
2023/05/22 06:23:43;;;;;;;;;;;;;;;;;;5113710;28;19962;-65
2023/05/22 06:27:17;;;;;;;;;;;;;;;;;;5127783;27;19915;-64
2023/05/22 06:29:43;;;;;;;;;;;;;;;;;;5129436;28;20362;-63
2023/05/22 06:32:28;;;;;;;;;;;;;;;;;;5088971;27;19922;-63
2023/05/22 06:36:45;;;;;;;;;;;;;;;;;;5089653;28;19927;-63
2023/05/22 06:41:26;;;;;;;;;;;;;;;;;;5169502;27;19941;-64
2023/05/22 06:45:47;;;;;;;;;;;;;;;;;;5087262;28;19913;-64
2023/05/22 06:49:28;;;;;;;;;;;;;;;;;;5050587;27;2120178;-64
2023/05/22 06:51:54;;;;;;;;;;;;;;;;;;5091747;28;19920;-64
2023/05/22 06:54:20;;;;;;;;;;;;;;;;;;5110322;28;19940;-63
2023/05/22 06:56:46;;;;;;;;;;;;;;;;;;5108680;28;19916;-65
2023/05/22 07:00:50;;;;;;;;;;;;;;;;;;5104075;27;19920;-65
2023/05/22 07:04:26;;;;;;;;;;;;;;;;;;5088759;27;19947;-67
2023/05/22 07:06:52;;;;;;;;;;;;;;;;;;5088494;28;19919;-65
2023/05/22 07:10:18;;;;;;;;;;;;;;;;;;5088777;28;19916;-64
2023/05/22 07:12:44;;;;;;;;;;;;;;;;;;5087429;28;19963;-66
2023/05/22 07:15:12;;;;;;;;;;;;;;;;;;5086975;28;19955;-65
2023/05/22 07:18:24;;;;;;;;;;;;;;;;;;5108166;27;20003;-64
2023/05/22 07:21:15;;;;;;;;;;;;;;;;;;5076541;27;19931;-65
2023/05/22 07:23:42;;;;;;;;;;;;;;;;;;5080453;28;19912;-66
2023/05/22 07:26:10;;;;;;;;;;;;;;;;;;5087381;28;19959;-64
2023/05/22 07:28:36;;;;;;;;;;;;;;;;;;5089285;28;19970;-64
2023/05/22 07:37:27;;;;;;;;;;;;;;;;;;5069427;28;19920;-65
2023/05/22 07:41:32;;;;;;;;;;;;;;;;;;5100838;27;19916;-65
2023/05/22 07:45:23;;;;;;;;;;;;;;;;;;5136699;27;19919;-64
2023/05/22 07:47:49;;;;;;;;;;;;;;;;;;5128002;28;19994;-66
2023/05/22 07:52:36;;;;;;;;;;;;;;;;;;5087981;27;19916;-66
2023/05/22 07:55:02;;;;;;;;;;;;;;;;;;5082471;28;20023;-66
2023/05/22 07:57:28;;;;;;;;;;;;;;;;;;5082449;28;19912;-66
2023/05/22 07:59:54;;;;;;;;;;;;;;;;;;5078988;28;19913;-67
2023/05/22 08:02:21;;;;;;;;;;;;;;;;;;5081640;28;19912;-65
2023/05/22 08:06:21;;;;;;;;;;;;;;;;;;5074894;27;20281;-64
2023/05/22 08:09:26;;;;;;;;;;;;;;;;;;5084651;27;19920;-65
2023/05/22 08:13:39;;;;;;;;;;;;;;;;;;5087307;27;20604;-66
2023/05/22 08:21:24;;;;;;;;;;;;;;;;;;5124053;27;19920;-65
2023/05/22 08:23:51;;;;;;;;;;;;;;;;;;5117799;28;19912;-65
2023/05/22 08:27:13;;;;;;;;;;;;;;;;;;5090000;27;20410;-64
2023/05/22 08:29:39;;;;;;;;;;;;;;;;;;5090457;28;19916;-64
2023/05/22 08:32:05;;;;;;;;;;;;;;;;;;5088974;28;19913;-64
2023/05/22 08:34:31;;;;;;;;;;;;;;;;;;5088921;28;19912;-65
2023/05/22 08:38:26;;;;;;;;;;;;;;;;;;5150692;27;19911;-64
2023/05/22 08:40:52;;;;;;;;;;;;;;;;;;5149458;27;19918;-64
2023/05/22 08:45:21;;;;;;;;;;;;;;;;;;5085766;27;2113625;-65
2023/05/22 08:47:47;;;;;;;;;;;;;;;;;;5127381;27;19918;-64
2023/05/22 08:52:10;;;;;;;;;;;;;;;;;;5083599;27;19912;-64
2023/05/22 08:54:36;;;;;;;;;;;;;;;;;;5088134;28;19923;-66
2023/05/22 09:01:40;;;;;;;;;;;;;;;;;;5140770;27;19916;-65
2023/05/22 09:04:06;;;;;;;;;;;;;;;;;;5099850;28;19916;-65
2023/05/22 09:06:32;;;;;;;;;;;;;;;;;;5094451;28;20279;-66
2023/05/22 09:09:02;;;;;;;;;;;;;;;;;;5120605;28;19981;-66
2023/05/22 09:19:20;;;;;;;;;;;;;;;;;;5033813;27;2424449;-64
2023/05/22 09:21:46;;;;;;;;;;;;;;;;;;5123056;28;19930;-65
2023/05/22 09:24:12;;;;;;;;;;;;;;;;;;5123954;28;19926;-64
2023/05/22 09:26:38;;;;;;;;;;;;;;;;;;5126722;28;19951;-67
2023/05/22 09:29:55;;;;;;;;;;;;;;;;;;5083935;27;20589;-65
2023/05/22 09:36:33;;;;;;;;;;;;;;;;;;5147388;27;19934;-66
2023/05/22 09:42:00;;;;;;;;;;;;;;;;;;5088028;27;19920;-67
2023/05/22 09:44:26;;;;;;;;;;;;;;;;;;5084533;28;20287;-67
2023/05/22 09:49:11;;;;;;;;;;;;;;;;;;5107876;27;20384;-65
2023/05/22 09:59:08;;;;;;;;;;;;;;;;;;5086157;28;20013;-66
2023/05/22 10:01:34;;;;;;;;;;;;;;;;;;5088652;28;19916;-65
2023/05/22 10:05:52;;;;;;;;;;;;;;;;;;5089568;27;20372;-66
2023/05/22 10:08:18;;;;;;;;;;;;;;;;;;5089926;28;19956;-66
2023/05/22 10:16:26;;;;;;;;;;;;;;;;;;5066677;28;19924;-66
2023/05/22 10:18:52;;;;;;;;;;;;;;;;;;5068377;28;19913;-67
2023/05/22 10:22:56;;;;;;;;;;;;;;;;;;5086691;28;20376;-66
2023/05/22 10:26:12;;;;;;;;;;;;;;;;;;5146071;27;20411;-65
2023/05/22 10:28:38;;;;;;;;;;;;;;;;;;5120741;28;19926;-65
2023/05/22 10:31:04;;;;;;;;;;;;;;;;;;5130349;28;19911;-64
2023/05/22 10:34:04;;;;;;;;;;;;;;;;;;5091797;27;19916;-64
2023/05/22 10:36:30;;;;;;;;;;;;;;;;;;5077558;28;19919;-67
2023/05/22 10:38:57;;;;;;;;;;;;;;;;;;5068056;28;19935;-64
2023/05/22 10:42:22;;;;;;;;;;;;;;;;;;5089436;27;19920;-69
2023/05/22 10:44:48;;;;;;;;;;;;;;;;;;5089567;28;19918;-70
2023/05/22 10:47:14;;;;;;;;;;;;;;;;;;5088938;28;19908;-70
2023/05/22 11:05:33;;;;;;;;;;;;;;;;;;3549184;27;21751;-69
2023/05/22 11:09:41;;;;;;;;;;;;;;;;;;5077692;27;2095816;-69
2023/05/22 11:12:07;;;;;;;;;;;;;;;;;;5152320;27;19994;-68
2023/05/22 11:14:33;;;;;;;;;;;;;;;;;;5139994;27;19947;-65
2023/05/22 11:22:03;;;;;;;;;;;;;;;;;;5091018;27;19939;-64
2023/05/22 11:24:38;;;;;;;;;;;;;;;;;;5109402;27;19912;-63
2023/05/22 11:27:04;;;;;;;;;;;;;;;;;;5108481;28;19936;-65
2023/05/22 11:35:54;;;;;;;;;;;;;;;;;;5085604;28;19923;-64
2023/05/22 11:38:20;;;;;;;;;;;;;;;;;;5086485;28;19916;-64
2023/05/22 11:40:46;;;;;;;;;;;;;;;;;;5087901;28;20336;-64
2023/05/22 11:47:05;;;;;;;;;;;;;;;;;;5089523;27;20336;-66
2023/05/22 11:49:31;;;;;;;;;;;;;;;;;;5088196;28;19919;-64
2023/05/22 11:54:12;;;;;;;;;;;;;;;;;;5103014;27;19927;-63
2023/05/22 11:56:38;;;;;;;;;;;;;;;;;;5099213;28;19916;-63
2023/05/22 11:59:04;;;;;;;;;;;;;;;;;;5107028;28;20367;-63
2023/05/22 12:02:20;;;;;;;;;;;;;;;;;;5129787;27;19915;-65
2023/05/22 12:04:47;;;;;;;;;;;;;;;;;;5129474;28;20309;-66
2023/05/22 12:12:12;;;;;;;;;;;;;;;;;;5088386;27;19927;-65
2023/05/22 12:14:38;;;;;;;;;;;;;;;;;;5090397;28;19912;-65
2023/05/22 12:17:05;;;;;;;;;;;;;;;;;;5087878;28;20394;-65
2023/05/22 12:19:34;;;;;;;;;;;;;;;;;;5089220;28;20035;-65
2023/05/22 12:22:00;;;;;;;;;;;;;;;;;;5089290;28;20368;-65
2023/05/22 12:24:26;;;;;;;;;;;;;;;;;;5085820;28;20338;-65
2023/05/22 12:27:01;;;;;;;;;;;;;;;;;;5089050;28;20322;-64
2023/05/22 12:29:38;;;;;;;;;;;;;;;;;;5136648;27;19976;-65
2023/05/22 12:32:25;;;;;;;;;;;;;;;;;;5154641;27;19919;-67
2023/05/22 12:34:51;;;;;;;;;;;;;;;;;;5149575;27;19919;-65
2023/05/22 12:37:17;;;;;;;;;;;;;;;;;;5149047;27;19934;-66
2023/05/22 12:39:43;;;;;;;;;;;;;;;;;;5146753;27;19912;-65
2023/05/22 12:42:09;;;;;;;;;;;;;;;;;;5149238;27;19957;-65
2023/05/22 12:44:35;;;;;;;;;;;;;;;;;;5147318;27;19922;-65
2023/05/22 12:47:01;;;;;;;;;;;;;;;;;;5148514;27;19908;-66
2023/05/22 12:49:27;;;;;;;;;;;;;;;;;;5147644;27;20002;-65
2023/05/22 12:54:20;;;;;;;;;;;;;;;;;;5085292;27;19913;-65
2023/05/22 12:56:46;;;;;;;;;;;;;;;;;;5064280;28;19963;-65
2023/05/22 12:59:12;;;;;;;;;;;;;;;;;;5067895;28;19909;-66
2023/05/22 13:01:38;;;;;;;;;;;;;;;;;;5067985;28;19913;-65
2023/05/22 13:04:04;;;;;;;;;;;;;;;;;;5067521;28;20011;-65
2023/05/22 13:06:30;;;;;;;;;;;;;;;;;;5067661;28;19917;-65
2023/05/22 13:08:56;;;;;;;;;;;;;;;;;;5067912;28;19919;-65
2023/05/22 13:11:23;;;;;;;;;;;;;;;;;;5069026;28;19913;-69
2023/05/22 13:13:49;;;;;;;;;;;;;;;;;;5070388;28;19924;-69
2023/05/22 13:17:25;;;;;;;;;;;;;;;;;;5089745;28;19916;-70
2023/05/22 13:19:51;;;;;;;;;;;;;;;;;;5087737;28;19912;-69
2023/05/22 13:22:17;;;;;;;;;;;;;;;;;;5089528;28;20264;-69
2023/05/22 13:24:43;;;;;;;;;;;;;;;;;;5089236;28;20328;-69
2023/05/22 13:27:09;;;;;;;;;;;;;;;;;;5088802;28;20280;-69
2023/05/22 13:29:35;;;;;;;;;;;;;;;;;;5087862;28;19978;-69
2023/05/22 13:32:01;;;;;;;;;;;;;;;;;;5090655;28;19908;-69
2023/05/22 13:34:27;;;;;;;;;;;;;;;;;;5090201;28;20418;-69
2023/05/22 13:36:52;;;;;;;;;;;;;;;;;;5089305;28;20303;-69
2023/05/22 13:43:29;;;;;;;;;;;;;;;;;;5091761;27;19913;-69
2023/05/22 13:45:54;;;;;;;;;;;;;;;;;;5091602;28;19919;-69
2023/05/22 13:48:20;;;;;;;;;;;;;;;;;;5090853;28;20003;-69
2023/05/22 13:50:46;;;;;;;;;;;;;;;;;;5091530;28;19912;-69
2023/05/22 13:53:12;;;;;;;;;;;;;;;;;;5091182;28;20368;-69
2023/05/22 13:55:38;;;;;;;;;;;;;;;;;;5090770;28;19909;-69
2023/05/22 13:58:04;;;;;;;;;;;;;;;;;;5091171;28;20382;-69
2023/05/22 14:00:30;;;;;;;;;;;;;;;;;;5090835;28;19908;-69
2023/05/22 14:02:56;;;;;;;;;;;;;;;;;;5090491;28;19916;-69
2023/05/22 14:05:22;;;;;;;;;;;;;;;;;;5091045;28;20002;-69
2023/05/22 14:07:49;;;;;;;;;;;;;;;;;;5089616;28;20013;-70
2023/05/22 14:10:15;;;;;;;;;;;;;;;;;;5090495;28;19912;-70
2023/05/22 14:12:41;;;;;;;;;;;;;;;;;;5090770;28;19942;-69
2023/05/22 14:17:12;;;;;;;;;;;;;;;;;;5152663;27;20289;-68
2023/05/22 14:19:38;;;;;;;;;;;;;;;;;;5152932;27;19911;-68
2023/05/22 14:29:44;;;;;;;;;;;;;;;;;;5173650;27;20009;-69
2023/05/22 14:32:20;;;;;;;;;;;;;;;;;;5071736;28;19927;-69
2023/05/22 14:38:33;;;;;;;;;;;;;;;;;;5090941;27;20409;-69
2023/05/22 14:40:59;;;;;;;;;;;;;;;;;;5091360;28;19948;-69
2023/05/22 14:43:25;;;;;;;;;;;;;;;;;;5091219;28;19908;-69
2023/05/22 14:45:51;;;;;;;;;;;;;;;;;;5090905;28;19908;-69
2023/05/22 14:49:41;;;;;;;;;;;;;;;;;;5091975;27;19916;-69
2023/05/22 14:52:07;;;;;;;;;;;;;;;;;;5091031;28;20007;-69
2023/05/22 14:54:33;;;;;;;;;;;;;;;;;;5091387;28;19908;-69
2023/05/22 14:58:18;;;;;;;;;;;;;;;;;;5091540;28;19913;-69
2023/05/22 15:00:46;;;;;;;;;;;;;;;;;;5091313;28;20204;-71
2023/05/22 15:03:12;;;;;;;;;;;;;;;;;;5091099;28;19926;-69
2023/05/22 15:05:38;;;;;;;;;;;;;;;;;;5090713;28;19913;-68
2023/05/22 15:08:04;;;;;;;;;;;;;;;;;;5091061;28;19908;-68
2023/05/22 15:10:30;;;;;;;;;;;;;;;;;;5091174;28;19940;-68
2023/05/22 15:21:55;;;;;;;;;;;;;;;;;;5091300;27;19913;-69
2023/05/22 15:24:21;;;;;;;;;;;;;;;;;;5091238;28;20040;-69
2023/05/22 15:27:32;;;;;;;;;;;;;;;;;;5152422;27;19911;-69
2023/05/22 15:30:26;;;;;;;;;;;;;;;;;;5091497;28;19922;-69
2023/05/22 15:32:52;;;;;;;;;;;;;;;;;;5091289;28;19913;-69
2023/05/22 15:35:18;;;;;;;;;;;;;;;;;;5090825;28;20021;-69
2023/05/22 15:37:43;;;;;;;;;;;;;;;;;;5091263;28;19908;-69
2023/05/22 15:40:11;;;;;;;;;;;;;;;;;;5091410;28;19909;-69
2023/05/22 15:42:37;;;;;;;;;;;;;;;;;;5091215;28;19908;-68
2023/05/22 15:45:03;;;;;;;;;;;;;;;;;;5091148;28;19909;-68
2023/05/22 15:49:06;;;;;;;;;;;;;;;;;;5111358;27;19916;-69
2023/05/22 15:51:32;;;;;;;;;;;;;;;;;;5111657;28;20007;-69
2023/05/22 15:53:58;;;;;;;;;;;;;;;;;;5110333;28;19908;-69
2023/05/22 15:56:23;;;;;;;;;;;;;;;;;;5109878;28;19953;-69
2023/05/22 15:58:49;;;;;;;;;;;;;;;;;;5111449;28;19995;-69
2023/05/22 16:01:15;;;;;;;;;;;;;;;;;;5111443;28;19919;-70
2023/05/22 16:03:41;;;;;;;;;;;;;;;;;;5111454;28;19908;-69
2023/05/22 16:06:07;;;;;;;;;;;;;;;;;;5111552;28;19908;-69
2023/05/22 16:10:17;;;;;;;;;;;;;;;;;;5090865;27;19912;-69
2023/05/22 16:12:43;;;;;;;;;;;;;;;;;;5091337;28;20334;-69
2023/05/22 16:17:29;;;;;;;;;;;;;;;;;;5091318;27;19913;-69
2023/05/22 16:19:55;;;;;;;;;;;;;;;;;;5091571;28;20003;-69
2023/05/22 16:22:21;;;;;;;;;;;;;;;;;;5091081;28;19913;-68
2023/05/22 16:26:31;;;;;;;;;;;;;;;;;;5071692;28;20296;-69
2023/05/22 16:30:25;;;;;;;;;;;;;;;;;;5091155;27;19913;-69
2023/05/22 16:34:07;;;;;;;;;;;;;;;;;;5111688;27;19916;-68
2023/05/22 16:36:33;;;;;;;;;;;;;;;;;;5111347;28;19945;-68
2023/05/22 16:38:59;;;;;;;;;;;;;;;;;;5110379;28;19912;-69
2023/05/22 16:46:49;;;;;;;;;;;;;;;;;;5092087;27;19919;-68
2023/05/22 16:49:14;;;;;;;;;;;;;;;;;;5091336;28;19994;-68
2023/05/22 16:51:40;;;;;;;;;;;;;;;;;;5090871;28;19909;-69
2023/05/22 16:54:06;;;;;;;;;;;;;;;;;;5091436;28;19919;-69
2023/05/22 16:56:32;;;;;;;;;;;;;;;;;;5091166;28;19952;-69
2023/05/22 16:58:58;;;;;;;;;;;;;;;;;;5090852;28;19909;-69
2023/05/22 17:01:26;;;;;;;;;;;;;;;;;;5091134;28;19908;-69
2023/05/22 17:04:55;;;;;;;;;;;;;;;;;;5091707;27;19923;-69
2023/05/22 17:07:21;;;;;;;;;;;;;;;;;;5091338;28;20003;-69
2023/05/22 17:09:47;;;;;;;;;;;;;;;;;;5090811;28;19908;-68
2023/05/22 17:12:12;;;;;;;;;;;;;;;;;;5090864;28;19955;-68
2023/05/22 17:14:38;;;;;;;;;;;;;;;;;;5091374;28;19908;-68
2023/05/22 17:17:05;;;;;;;;;;;;;;;;;;5091053;28;19913;-69
2023/05/22 17:19:31;;;;;;;;;;;;;;;;;;5090817;28;19908;-69
2023/05/22 17:32:32;;;;;;;;;;;;;;;;;;5111477;27;19916;-69
2023/05/22 17:35:13;;;;;;;;;;;;;;;;;;5111970;27;19916;-71
2023/05/22 17:37:40;;;;;;;;;;;;;;;;;;5111767;28;19912;-68
2023/05/22 17:40:06;;;;;;;;;;;;;;;;;;5111464;28;19969;-69
2023/05/22 17:42:32;;;;;;;;;;;;;;;;;;5111786;28;19927;-69
2023/05/22 17:44:58;;;;;;;;;;;;;;;;;;5111708;28;20304;-69
2023/05/22 17:47:24;;;;;;;;;;;;;;;;;;5111204;28;19908;-69
2023/05/22 17:50:13;;;;;;;;;;;;;;;;;;5071896;27;19924;-69
2023/05/22 17:52:39;;;;;;;;;;;;;;;;;;5071153;28;19913;-69
2023/05/22 17:55:06;;;;;;;;;;;;;;;;;;5070759;28;19909;-70
2023/05/22 18:03:22;;;;;;;;;;;;;;;;;;5153199;27;20006;-69
2023/05/22 18:05:51;;;;;;;;;;;;;;;;;;5152826;27;19911;-69
2023/05/22 18:08:17;;;;;;;;;;;;;;;;;;5152485;27;19960;-68
2023/05/22 18:10:43;;;;;;;;;;;;;;;;;;5152865;27;19960;-69
2023/05/22 18:13:09;;;;;;;;;;;;;;;;;;5152854;27;20309;-69
2023/05/22 18:17:36;;;;;;;;;;;;;;;;;;5091425;28;19916;-69
2023/05/22 18:20:03;;;;;;;;;;;;;;;;;;5091415;28;20003;-69
2023/05/22 18:22:29;;;;;;;;;;;;;;;;;;5090902;28;19998;-69
2023/05/22 18:24:55;;;;;;;;;;;;;;;;;;5091328;28;19935;-70
2023/05/22 18:27:46;;;;;;;;;;;;;;;;;;5091616;27;20314;-69
2023/05/22 18:30:12;;;;;;;;;;;;;;;;;;5091243;28;19919;-69
2023/05/22 18:34:36;;;;;;;;;;;;;;;;;;5077026;27;2120040;-68
2023/05/22 18:37:02;;;;;;;;;;;;;;;;;;5152546;27;19968;-69
2023/05/22 18:39:29;;;;;;;;;;;;;;;;;;5152838;27;19908;-69
2023/05/22 18:46:32;;;;;;;;;;;;;;;;;;5092207;27;20267;-69
2023/05/22 18:48:58;;;;;;;;;;;;;;;;;;5091394;28;19981;-69
2023/05/22 18:51:24;;;;;;;;;;;;;;;;;;5090806;28;20368;-69
2023/05/22 18:53:50;;;;;;;;;;;;;;;;;;5091223;28;20279;-70
2023/05/22 19:00:09;;;;;;;;;;;;;;;;;;5132452;27;20014;-69
2023/05/22 19:02:35;;;;;;;;;;;;;;;;;;5132670;28;19912;-69
2023/05/22 19:05:01;;;;;;;;;;;;;;;;;;5131681;28;19908;-69
2023/05/22 19:07:26;;;;;;;;;;;;;;;;;;5132054;28;19931;-69
2023/05/22 19:12:39;;;;;;;;;;;;;;;;;;5173486;27;19911;-68
2023/05/22 19:15:05;;;;;;;;;;;;;;;;;;5173667;27;20267;-69
2023/05/22 19:17:31;;;;;;;;;;;;;;;;;;5173645;27;20389;-68
2023/05/22 19:19:57;;;;;;;;;;;;;;;;;;5173265;27;19911;-68
2023/05/22 19:24:00;;;;;;;;;;;;;;;;;;5112194;27;19923;-70
2023/05/22 19:27:48;;;;;;;;;;;;;;;;;;5091588;28;19917;-68
2023/05/22 19:30:15;;;;;;;;;;;;;;;;;;5091403;28;19936;-69
2023/05/22 19:33:24;;;;;;;;;;;;;;;;;;5069441;28;19919;-68
2023/05/22 19:35:50;;;;;;;;;;;;;;;;;;5070286;28;20011;-68
2023/05/22 19:38:16;;;;;;;;;;;;;;;;;;5071457;28;19944;-69
2023/05/22 19:40:42;;;;;;;;;;;;;;;;;;5070402;28;20368;-69
2023/05/22 19:43:08;;;;;;;;;;;;;;;;;;5070912;28;20290;-69
2023/05/22 19:48:05;;;;;;;;;;;;;;;;;;5045581;27;2374467;-70
2023/05/22 19:54:12;;;;;;;;;;;;;;;;;;5090849;27;19922;-69
2023/05/22 19:56:38;;;;;;;;;;;;;;;;;;5091524;28;19912;-70
2023/05/22 20:02:53;;;;;;;;;;;;;;;;;;5091461;27;19912;-70
2023/05/22 20:05:19;;;;;;;;;;;;;;;;;;5091274;28;19920;-70
2023/05/22 20:08:27;;;;;;;;;;;;;;;;;;5090988;27;19918;-70
2023/05/22 20:10:53;;;;;;;;;;;;;;;;;;5091378;28;20330;-69
2023/05/22 20:14:57;;;;;;;;;;;;;;;;;;5071333;28;20245;-69
2023/05/22 20:18:54;;;;;;;;;;;;;;;;;;5174018;27;20276;-69
2023/05/22 20:21:20;;;;;;;;;;;;;;;;;;5173575;27;19957;-70
2023/05/22 20:25:30;;;;;;;;;;;;;;;;;;5091424;27;20476;-71
2023/05/22 20:27:56;;;;;;;;;;;;;;;;;;5091395;28;19919;-70
2023/05/22 20:32:25;;;;;;;;;;;;;;;;;;5091853;27;19919;-69
2023/05/22 20:34:51;;;;;;;;;;;;;;;;;;5090027;28;20005;-69
2023/05/22 20:37:17;;;;;;;;;;;;;;;;;;5091168;28;20102;-70
2023/05/22 20:39:45;;;;;;;;;;;;;;;;;;5091299;28;20422;-69
2023/05/22 20:42:11;;;;;;;;;;;;;;;;;;5091214;28;19909;-69
2023/05/22 20:50:56;;;;;;;;;;;;;;;;;;5152698;27;20318;-69
2023/05/22 20:53:23;;;;;;;;;;;;;;;;;;5153444;27;19911;-69
2023/05/22 20:56:28;;;;;;;;;;;;;;;;;;5091349;27;19916;-69
2023/05/22 20:58:55;;;;;;;;;;;;;;;;;;5091289;28;19919;-70
2023/05/22 21:01:20;;;;;;;;;;;;;;;;;;5091146;28;19916;-69
2023/05/22 21:03:59;;;;;;;;;;;;;;;;;;5091039;27;20273;-70
2023/05/22 21:06:25;;;;;;;;;;;;;;;;;;5091408;28;20007;-70
2023/05/22 21:08:57;;;;;;;;;;;;;;;;;;5091109;28;19999;-70
2023/05/22 21:11:23;;;;;;;;;;;;;;;;;;5090785;28;19915;-70
2023/05/22 21:15:14;;;;;;;;;;;;;;;;;;5091677;27;19935;-69
2023/05/22 21:17:40;;;;;;;;;;;;;;;;;;5090901;28;20427;-69
2023/05/22 21:21:06;;;;;;;;;;;;;;;;;;5091952;27;20391;-69
2023/05/22 21:23:32;;;;;;;;;;;;;;;;;;5090022;28;20008;-69
2023/05/22 21:28:26;;;;;;;;;;;;;;;;;;5173859;27;20002;-70
2023/05/22 21:34:37;;;;;;;;;;;;;;;;;;5091397;27;19916;-68
2023/05/22 21:37:03;;;;;;;;;;;;;;;;;;5091252;28;19948;-68
2023/05/22 21:41:42;;;;;;;;;;;;;;;;;;5092124;27;19916;-67
2023/05/22 21:46:26;;;;;;;;;;;;;;;;;;5091048;27;19916;-68
2023/05/22 21:56:30;;;;;;;;;;;;;;;;;;5092218;27;19916;-69
2023/05/22 21:58:56;;;;;;;;;;;;;;;;;;5091305;28;20340;-68
2023/05/22 22:01:22;;;;;;;;;;;;;;;;;;5090751;28;19908;-69
2023/05/22 22:03:48;;;;;;;;;;;;;;;;;;5091180;28;19922;-69
2023/05/22 22:12:17;;;;;;;;;;;;;;;;;;5091870;27;19913;-68
2023/05/22 22:14:43;;;;;;;;;;;;;;;;;;5091185;28;19912;-68
2023/05/22 22:18:42;;;;;;;;;;;;;;;;;;5174040;27;19911;-70
2023/05/22 22:21:09;;;;;;;;;;;;;;;;;;5154573;27;19929;-69
2023/05/22 22:23:35;;;;;;;;;;;;;;;;;;5173651;27;19907;-68
2023/05/22 22:31:14;;;;;;;;;;;;;;;;;;5049549;27;2355210;-70
2023/05/22 22:34:45;;;;;;;;;;;;;;;;;;5153054;27;19999;-69
2023/05/22 22:37:27;;;;;;;;;;;;;;;;;;5091590;27;19919;-70
2023/05/22 22:39:53;;;;;;;;;;;;;;;;;;5091447;28;20008;-70
2023/05/22 22:42:19;;;;;;;;;;;;;;;;;;5090927;28;19952;-68
2023/05/22 22:44:45;;;;;;;;;;;;;;;;;;5091753;28;20007;-70
2023/05/22 22:48:33;;;;;;;;;;;;;;;;;;5153389;27;19950;-69
2023/05/22 22:50:59;;;;;;;;;;;;;;;;;;5152389;27;20247;-68
2023/05/22 22:55:45;;;;;;;;;;;;;;;;;;5090758;28;20000;-68
2023/05/22 22:58:11;;;;;;;;;;;;;;;;;;5090803;28;20257;-68
2023/05/22 23:00:37;;;;;;;;;;;;;;;;;;5073075;28;19958;-68